createdAt,value
2017-05-14T00:00:55.070Z,5.34
2017-05-14T00:03:22.623Z,5.18
2017-05-14T00:05:50.132Z,4.56
2017-05-14T00:08:18.050Z,4.60
2017-05-14T00:10:45.573Z,3.56
2017-05-14T00:13:13.096Z,5.34
2017-05-14T00:15:40.693Z,4.40
2017-05-14T00:18:08.228Z,4.72
2017-05-14T00:20:35.911Z,4.44
2017-05-14T00:23:03.446Z,4.82
2017-05-14T00:25:30.973Z,5.28
2017-05-14T00:27:58.535Z,5.80
2017-05-14T00:30:26.108Z,6.42
2017-05-14T00:32:53.712Z,6.00
2017-05-14T00:35:21.227Z,6.00
2017-05-14T00:37:48.813Z,10.08
2017-05-14T00:40:16.323Z,9.68
2017-05-14T00:42:44.086Z,6.52
2017-05-14T00:45:11.604Z,7.30
2017-05-14T00:47:39.127Z,7.94
2017-05-14T00:50:06.687Z,6.20
2017-05-14T00:52:34.203Z,6.44
2017-05-14T00:55:02.004Z,6.34
2017-05-14T00:57:29.541Z,6.14
2017-05-14T00:59:57.071Z,7.34
2017-05-14T01:02:24.683Z,8.28
2017-05-14T01:04:52.251Z,6.70
2017-05-14T01:07:19.968Z,7.52
2017-05-14T01:09:47.544Z,6.82
2017-05-14T01:12:15.110Z,7.72
2017-05-14T01:14:42.688Z,7.68
2017-05-14T01:17:10.217Z,6.26
2017-05-14T01:19:37.775Z,6.56
2017-05-14T01:22:05.293Z,8.36
2017-05-14T01:24:32.977Z,9.40
2017-05-14T01:27:00.539Z,7.36
2017-05-14T01:29:28.054Z,8.08
2017-05-14T01:31:55.873Z,7.18
2017-05-14T01:34:23.387Z,7.34
2017-05-14T01:36:50.913Z,7.32
2017-05-14T01:39:18.644Z,9.14
2017-05-14T01:41:46.160Z,7.84
2017-05-14T01:44:13.692Z,9.32
2017-05-14T01:46:41.267Z,7.72
2017-05-14T01:49:08.819Z,6.38
2017-05-14T01:51:36.423Z,7.90
2017-05-14T01:54:03.976Z,6.76
2017-05-14T01:56:31.590Z,6.34
2017-05-14T01:58:59.120Z,6.32
2017-05-14T02:01:26.866Z,8.08
2017-05-14T02:03:54.392Z,8.44
2017-05-14T02:06:21.923Z,7.16
2017-05-14T02:08:49.484Z,7.40
2017-05-14T02:11:17.132Z,6.44
2017-05-14T02:13:44.790Z,8.18
2017-05-14T02:16:12.410Z,9.16
2017-05-14T02:18:40.191Z,6.32
2017-05-14T02:21:07.712Z,6.34
2017-05-14T02:23:35.231Z,6.62
2017-05-14T02:26:02.779Z,7.46
2017-05-14T02:28:30.295Z,6.32
2017-05-14T02:30:57.961Z,8.70
2017-05-14T02:33:25.503Z,8.04
2017-05-14T02:35:53.028Z,9.20
2017-05-14T02:38:20.590Z,7.30
2017-05-14T02:40:48.105Z,7.70
2017-05-14T02:43:15.674Z,9.92
2017-05-14T02:45:43.196Z,9.24
2017-05-14T02:48:10.900Z,8.06
2017-05-14T02:50:38.499Z,8.26
2017-05-14T02:53:06.031Z,8.92
2017-05-14T02:55:33.627Z,7.36
2017-05-14T02:58:01.195Z,8.98
2017-05-14T03:00:29.058Z,6.70
2017-05-14T03:02:56.570Z,8.22
2017-05-14T03:05:24.112Z,8.46
2017-05-14T03:07:51.730Z,7.50
2017-05-14T03:10:19.263Z,8.64
2017-05-14T03:12:46.832Z,8.40
2017-05-14T03:15:14.334Z,7.40
2017-05-14T03:17:41.994Z,7.42
2017-05-14T03:20:09.515Z,7.74
2017-05-14T03:22:37.044Z,8.20
2017-05-14T03:25:04.598Z,9.08
2017-05-14T03:27:32.106Z,8.96
2017-05-14T03:29:59.664Z,8.26
2017-05-14T03:32:27.191Z,8.26
2017-05-14T03:34:55.163Z,8.96
2017-05-14T03:37:22.751Z,8.32
2017-05-14T03:39:50.328Z,9.98
2017-05-14T03:42:18.023Z,8.28
2017-05-14T03:44:45.523Z,8.80
2017-05-14T03:47:13.070Z,8.48
2017-05-14T03:49:40.582Z,8.16
2017-05-14T03:52:08.139Z,9.80
2017-05-14T03:54:35.655Z,8.66
2017-05-14T03:57:03.311Z,8.82
2017-05-14T03:59:30.837Z,8.46
2017-05-14T04:01:58.352Z,8.50
2017-05-14T04:04:25.903Z,9.72
2017-05-14T04:06:53.433Z,9.04
2017-05-14T04:09:21.414Z,8.32
2017-05-14T04:11:48.940Z,9.02
2017-05-14T04:14:16.451Z,9.88
2017-05-14T04:16:44.114Z,9.42
2017-05-14T04:19:11.643Z,8.44
2017-05-14T04:21:39.215Z,8.46
2017-05-14T04:24:06.838Z,8.84
2017-05-14T04:26:34.382Z,9.24
2017-05-14T04:29:01.896Z,11.00
2017-05-14T04:31:29.400Z,9.42
2017-05-14T04:33:56.948Z,9.44
2017-05-14T04:36:24.460Z,11.22
2017-05-14T04:38:52.018Z,10.34
2017-05-14T04:41:19.528Z,11.04
2017-05-14T04:43:47.299Z,9.94
2017-05-14T04:46:14.826Z,11.06
2017-05-14T04:48:42.351Z,11.66
2017-05-14T04:51:09.959Z,11.22
2017-05-14T04:53:37.566Z,12.04
2017-05-14T04:56:05.234Z,11.36
2017-05-14T04:58:32.792Z,11.42
2017-05-14T05:01:00.318Z,13.18
2017-05-14T05:03:27.928Z,11.52
2017-05-14T05:05:55.443Z,12.90
2017-05-14T05:08:22.991Z,13.72
2017-05-14T05:10:50.517Z,15.24
2017-05-14T05:13:18.078Z,15.20
2017-05-14T05:15:45.627Z,15.74
2017-05-14T05:18:13.338Z,14.82
2017-05-14T05:20:40.873Z,15.60
2017-05-14T05:23:08.403Z,19.92
2017-05-14T05:25:35.976Z,17.80
2017-05-14T05:28:03.499Z,18.36
2017-05-14T05:30:31.058Z,20.36
2017-05-14T05:32:58.584Z,16.56
2017-05-14T05:35:26.147Z,18.14
2017-05-14T05:37:53.671Z,17.54
2017-05-14T05:40:21.355Z,16.96
2017-05-14T05:42:48.892Z,16.64
2017-05-14T05:45:16.466Z,17.22
2017-05-14T05:47:44.024Z,16.72
2017-05-14T05:50:11.571Z,13.34
2017-05-14T05:52:39.790Z,17.90
2017-05-14T05:55:07.308Z,16.42
2017-05-14T05:57:34.868Z,20.60
2017-05-14T06:00:02.427Z,14.62
2017-05-14T06:02:30.320Z,15.28
2017-05-14T06:04:57.967Z,18.58
2017-05-14T06:07:25.536Z,18.48
2017-05-14T06:09:53.127Z,15.34
2017-05-14T06:12:20.775Z,15.80
2017-05-14T06:14:48.360Z,14.16
2017-05-14T06:17:15.916Z,14.18
2017-05-14T06:19:43.604Z,13.26
2017-05-14T06:22:11.147Z,14.22
2017-05-14T06:24:38.720Z,13.62
2017-05-14T06:27:06.259Z,19.80
2017-05-14T06:29:33.813Z,14.14
2017-05-14T06:32:01.347Z,14.28
2017-05-14T06:34:29.263Z,14.30
2017-05-14T06:36:56.822Z,14.32
2017-05-14T06:39:24.365Z,12.78
2017-05-14T06:41:51.918Z,14.54
2017-05-14T06:44:19.477Z,17.06
2017-05-14T06:46:47.039Z,13.30
2017-05-14T06:49:14.596Z,14.68
2017-05-14T06:51:42.225Z,13.84
2017-05-14T06:54:09.756Z,12.16
2017-05-14T06:56:37.343Z,13.04
2017-05-14T06:59:04.904Z,12.72
2017-05-14T07:01:32.439Z,10.44
2017-05-14T07:04:00.103Z,10.66
2017-05-14T07:06:27.618Z,12.14
2017-05-14T07:08:55.192Z,10.24
2017-05-14T07:11:22.724Z,10.32
2017-05-14T07:13:50.292Z,9.98
2017-05-14T07:16:17.886Z,10.40
2017-05-14T07:18:45.579Z,10.60
2017-05-14T07:21:13.164Z,11.56
2017-05-14T07:23:40.790Z,9.48
2017-05-14T07:26:08.410Z,10.28
2017-05-14T07:28:35.951Z,9.52
2017-05-14T07:31:03.599Z,8.78
2017-05-14T07:33:31.143Z,10.04
2017-05-14T07:35:58.756Z,9.60
2017-05-14T07:38:26.291Z,10.28
2017-05-14T07:40:54.907Z,8.68
2017-05-14T07:43:22.972Z,8.42
2017-05-14T07:45:50.488Z,7.62
2017-05-14T07:48:18.060Z,7.82
2017-05-14T07:50:45.645Z,7.84
2017-05-14T07:53:13.239Z,7.02
2017-05-14T07:55:42.994Z,6.56
2017-05-14T07:58:11.316Z,8.58
2017-05-14T08:00:38.911Z,10.92
2017-05-14T08:03:06.468Z,7.94
2017-05-14T08:05:34.108Z,6.70
2017-05-14T08:08:01.623Z,7.10
2017-05-14T08:10:29.600Z,5.38
2017-05-14T08:12:57.175Z,7.42
2017-05-14T08:15:26.542Z,4.92
2017-05-14T08:17:54.059Z,5.72
2017-05-14T08:20:22.894Z,6.52
2017-05-14T08:22:50.714Z,4.02
2017-05-14T08:25:18.245Z,6.64
2017-05-14T08:27:46.451Z,4.56
2017-05-14T08:30:14.312Z,5.54
2017-05-14T08:32:41.847Z,5.04
2017-05-14T08:35:09.410Z,3.74
2017-05-14T08:37:36.932Z,4.60
2017-05-14T08:40:04.487Z,4.48
2017-05-14T08:42:31.999Z,4.38
2017-05-14T08:44:59.542Z,9.36
2017-05-14T08:47:27.071Z,4.50
2017-05-14T08:49:54.614Z,4.04
2017-05-14T08:52:22.152Z,6.20
2017-05-14T08:54:49.811Z,4.64
2017-05-14T08:57:17.329Z,7.18
2017-05-14T08:59:44.851Z,4.38
2017-05-14T09:02:12.395Z,3.48
2017-05-14T09:04:39.959Z,5.40
2017-05-14T09:07:07.523Z,4.36
2017-05-14T09:09:35.036Z,5.20
2017-05-14T09:12:02.788Z,4.32
2017-05-14T09:14:30.307Z,3.72
2017-05-14T09:16:57.821Z,4.28
2017-05-14T09:19:25.433Z,5.08
2017-05-14T09:21:52.944Z,4.94
2017-05-14T09:24:20.527Z,6.04
2017-05-14T09:26:48.078Z,5.66
2017-05-14T09:29:15.767Z,4.22
2017-05-14T09:31:43.333Z,4.50
2017-05-14T09:34:10.900Z,4.82
2017-05-14T09:36:38.504Z,3.58
2017-05-14T09:39:06.103Z,4.02
2017-05-14T09:41:33.780Z,5.40
2017-05-14T09:44:01.302Z,4.70
2017-05-14T09:46:28.820Z,4.40
2017-05-14T09:48:56.424Z,5.62
2017-05-14T09:51:23.951Z,9.14
2017-05-14T09:53:51.683Z,4.36
2017-05-14T09:56:19.248Z,4.84
2017-05-14T09:58:46.794Z,3.40
2017-05-14T10:01:14.404Z,6.62
2017-05-14T10:03:41.929Z,3.32
2017-05-14T10:06:09.675Z,4.70
2017-05-14T10:08:37.187Z,3.74
2017-05-14T10:11:05.005Z,3.10
2017-05-14T10:13:32.604Z,3.80
2017-05-14T10:16:00.129Z,4.10
2017-05-14T10:18:27.827Z,5.60
2017-05-14T10:20:55.353Z,5.54
2017-05-14T10:23:22.876Z,3.22
2017-05-14T10:25:50.450Z,3.90
2017-05-14T10:28:17.985Z,2.68
2017-05-14T10:30:45.536Z,4.50
2017-05-14T10:33:13.057Z,3.58
2017-05-14T10:35:40.611Z,2.04
2017-05-14T10:38:08.201Z,4.57
2017-05-14T10:40:35.847Z,4.40
2017-05-14T10:43:03.831Z,2.96
2017-05-14T10:45:32.740Z,4.78
2017-05-14T10:48:00.313Z,3.42
2017-05-14T10:50:27.904Z,2.12
2017-05-14T10:52:55.485Z,3.30
2017-05-14T10:55:23.039Z,2.06
2017-05-14T10:57:50.747Z,2.42
2017-05-14T11:00:18.233Z,2.28
2017-05-14T11:02:45.786Z,5.12
2017-05-14T11:05:13.405Z,4.14
2017-05-14T11:07:40.996Z,2.48
2017-05-14T11:10:08.560Z,1.80
2017-05-14T11:12:36.080Z,3.34
2017-05-14T11:15:04.005Z,2.30
2017-05-14T11:17:31.639Z,1.62
2017-05-14T11:19:59.247Z,2.54
2017-05-14T11:22:26.838Z,3.08
2017-05-14T11:24:54.432Z,2.74
2017-05-14T11:27:22.160Z,3.84
2017-05-14T11:29:49.700Z,3.14
2017-05-14T11:32:17.340Z,4.64
2017-05-14T11:34:44.910Z,2.70
2017-05-14T11:37:12.451Z,5.64
2017-05-14T11:39:40.031Z,6.02
2017-05-14T11:42:07.567Z,2.96
2017-05-14T11:44:35.412Z,3.76
2017-05-14T11:47:02.948Z,2.12
2017-05-14T11:49:30.528Z,3.54
2017-05-14T11:51:58.100Z,4.40
2017-05-14T11:54:25.620Z,1.96
2017-05-14T11:56:53.143Z,2.44
2017-05-14T11:59:20.859Z,2.72
2017-05-14T12:01:48.376Z,4.94
2017-05-14T12:04:15.892Z,3.02
2017-05-14T12:06:43.460Z,3.42
2017-05-14T12:09:10.997Z,2.74
2017-05-14T12:11:38.679Z,2.88
2017-05-14T12:14:06.247Z,4.20
2017-05-14T12:16:33.727Z,2.80
2017-05-14T12:19:01.285Z,2.94
2017-05-14T12:21:28.767Z,3.12
2017-05-14T12:23:56.518Z,3.16
2017-05-14T12:26:24.199Z,4.04
2017-05-14T12:28:51.731Z,3.12
2017-05-14T12:31:19.361Z,2.64
2017-05-14T12:33:46.913Z,4.92
2017-05-14T12:36:14.605Z,2.76
2017-05-14T12:38:42.145Z,4.84
2017-05-14T12:41:09.713Z,3.02
2017-05-14T12:43:37.299Z,2.90
2017-05-14T12:46:04.840Z,4.22
2017-05-14T12:48:32.504Z,2.40
2017-05-14T12:51:00.027Z,4.40
2017-05-14T12:53:27.662Z,4.70
2017-05-14T12:55:55.304Z,2.94
2017-05-14T12:58:22.883Z,2.38
2017-05-14T13:00:50.656Z,2.24
2017-05-14T13:03:18.167Z,2.36
2017-05-14T13:05:45.688Z,2.20
2017-05-14T13:08:13.247Z,1.98
2017-05-14T13:10:40.759Z,2.10
2017-05-14T13:13:08.315Z,2.84
2017-05-14T13:15:35.873Z,1.60
2017-05-14T13:18:03.550Z,2.00
2017-05-14T13:20:31.071Z,1.80
2017-05-14T13:22:58.611Z,1.80
2017-05-14T13:25:26.195Z,2.18
2017-05-14T13:27:53.727Z,4.68
2017-05-14T13:30:21.400Z,2.36
2017-05-14T13:32:48.931Z,2.96
2017-05-14T13:35:16.460Z,3.30
2017-05-14T13:37:44.037Z,2.02
2017-05-14T13:40:11.591Z,1.94
2017-05-14T13:42:39.266Z,2.32
2017-05-14T13:45:06.876Z,3.24
2017-05-14T13:47:34.399Z,3.28
2017-05-14T13:50:02.052Z,3.42
2017-05-14T13:52:29.574Z,4.78
2017-05-14T13:54:57.291Z,2.28
2017-05-14T13:57:24.840Z,2.80
2017-05-14T13:59:52.524Z,3.20
2017-05-14T14:02:20.057Z,4.80
2017-05-14T14:04:47.638Z,3.86
2017-05-14T14:07:15.257Z,7.12
2017-05-14T14:09:42.798Z,12.84
2017-05-14T14:12:10.397Z,6.38
2017-05-14T14:14:37.919Z,2.80
2017-05-14T14:17:05.691Z,2.60
2017-05-14T14:19:33.275Z,3.66
2017-05-14T14:22:00.807Z,10.74
2017-05-14T14:24:28.401Z,4.62
2017-05-14T14:26:55.908Z,5.96
2017-05-14T14:29:23.635Z,3.04
2017-05-14T14:31:51.153Z,4.88
2017-05-14T14:34:18.692Z,2.70
2017-05-14T14:36:46.257Z,2.46
2017-05-14T14:39:13.795Z,4.56
2017-05-14T14:41:41.468Z,7.18
2017-05-14T14:44:08.979Z,2.42
2017-05-14T14:46:36.551Z,3.68
2017-05-14T14:49:04.175Z,2.04
2017-05-14T14:51:31.706Z,2.72
2017-05-14T14:53:59.352Z,5.56
2017-05-14T14:56:26.863Z,1.84
2017-05-14T14:58:54.908Z,4.82
2017-05-14T15:01:22.415Z,5.02
2017-05-14T15:03:49.957Z,1.80
2017-05-14T15:06:17.539Z,2.00
2017-05-14T15:08:45.071Z,2.40
2017-05-14T15:11:12.638Z,2.70
2017-05-14T15:13:40.171Z,2.18
2017-05-14T15:16:07.944Z,3.40
2017-05-14T15:18:35.463Z,3.08
2017-05-14T15:21:02.973Z,3.30
2017-05-14T15:23:30.636Z,8.22
2017-05-14T15:25:58.189Z,2.46
2017-05-14T15:28:25.735Z,3.46
2017-05-14T15:30:53.645Z,3.14
2017-05-14T15:33:21.170Z,4.16
2017-05-14T15:35:48.707Z,11.78
2017-05-14T15:38:16.255Z,6.66
2017-05-14T15:40:43.760Z,3.46
2017-05-14T15:43:11.834Z,9.16
2017-05-14T15:45:39.383Z,3.88
2017-05-14T15:48:06.924Z,2.48
2017-05-14T15:50:34.480Z,3.88
2017-05-14T15:53:02.033Z,4.92
2017-05-14T15:55:29.595Z,2.70
2017-05-14T15:57:57.177Z,3.64
2017-05-14T16:00:24.736Z,2.72
2017-05-14T16:02:52.398Z,5.32
2017-05-14T16:05:19.920Z,2.44
2017-05-14T16:07:47.467Z,1.74
2017-05-14T16:10:15.040Z,2.10
2017-05-14T16:12:42.598Z,3.50
2017-05-14T16:15:10.459Z,7.96
2017-05-14T16:17:37.973Z,7.16
2017-05-14T16:20:05.498Z,3.08
2017-05-14T16:22:33.053Z,1.90
2017-05-14T16:25:00.563Z,3.22
2017-05-14T16:27:28.341Z,2.12
2017-05-14T16:29:55.898Z,3.40
2017-05-14T16:32:23.403Z,1.76
2017-05-14T16:34:50.979Z,3.12
2017-05-14T16:37:18.521Z,3.22
2017-05-14T16:39:46.475Z,1.54
2017-05-14T16:42:14.002Z,1.72
2017-05-14T16:44:41.559Z,1.72
2017-05-14T16:47:09.139Z,1.60
2017-05-14T16:49:36.676Z,1.88
2017-05-14T16:52:04.273Z,1.16
2017-05-14T16:54:31.787Z,3.30
2017-05-14T16:56:59.351Z,1.44
2017-05-14T16:59:26.858Z,4.72
2017-05-14T17:01:54.610Z,1.10
2017-05-14T17:04:22.158Z,3.06
2017-05-14T17:06:49.716Z,3.00
2017-05-14T17:09:17.274Z,1.74
2017-05-14T17:11:44.792Z,1.16
2017-05-14T17:14:12.850Z,2.04
2017-05-14T17:16:40.450Z,1.04
2017-05-14T17:19:08.151Z,1.30
2017-05-14T17:21:35.697Z,3.06
2017-05-14T17:24:03.291Z,1.78
2017-05-14T17:26:30.915Z,1.30
2017-05-14T17:28:58.508Z,1.84
2017-05-14T17:31:26.206Z,2.30
2017-05-14T17:33:53.767Z,1.32
2017-05-14T17:36:21.355Z,2.36
2017-05-14T17:38:48.938Z,2.10
2017-05-14T17:41:16.460Z,74.42
2017-05-14T17:43:44.212Z,177.22
2017-05-14T17:46:11.763Z,61.96
2017-05-14T17:48:39.315Z,30.90
2017-05-14T17:51:06.963Z,5.18
2017-05-14T17:53:34.523Z,7.72
2017-05-14T17:56:02.192Z,4.10
2017-05-14T17:58:29.720Z,14.60
2017-05-14T18:00:57.275Z,47.94
2017-05-14T18:03:24.845Z,4.30
2017-05-14T18:05:52.360Z,5.84
2017-05-14T18:08:20.303Z,15.86
2017-05-14T18:10:47.900Z,1.82
2017-05-14T18:13:15.506Z,5.48
2017-05-14T18:15:43.089Z,9.22
2017-05-14T18:18:10.659Z,1.44
2017-05-14T18:20:38.381Z,2.78
2017-05-14T18:23:06.000Z,2.14
2017-05-14T18:25:33.536Z,2.04
2017-05-14T18:28:01.143Z,3.24
2017-05-14T18:30:28.741Z,2.42
2017-05-14T18:32:56.394Z,2.80
2017-05-14T18:35:24.013Z,3.12
2017-05-14T18:37:51.948Z,2.48
2017-05-14T18:40:19.570Z,1.90
2017-05-14T18:42:47.104Z,33.62
2017-05-14T18:45:14.664Z,4.70
2017-05-14T18:47:42.239Z,2.84
2017-05-14T18:50:09.846Z,2.40
2017-05-14T18:52:37.347Z,4.40
2017-05-14T18:55:05.100Z,2.76
2017-05-14T18:57:32.632Z,1.48
2017-05-14T19:00:00.207Z,3.00
2017-05-14T19:02:27.779Z,2.42
2017-05-14T19:04:59.765Z,3.76
2017-05-14T19:07:27.383Z,5.20
2017-05-14T19:09:54.915Z,3.20
2017-05-14T19:12:22.459Z,2.74
2017-05-14T19:14:50.436Z,1.38
2017-05-14T19:17:17.961Z,3.36
2017-05-14T19:19:45.516Z,1.34
2017-05-14T19:22:13.094Z,1.86
2017-05-14T19:24:40.834Z,3.00
2017-05-14T19:27:08.424Z,2.32
2017-05-14T19:29:35.982Z,7.74
2017-05-14T19:32:03.577Z,2.82
2017-05-14T19:34:31.142Z,3.84
2017-05-14T19:36:58.847Z,4.18
2017-05-14T19:39:26.365Z,5.86
2017-05-14T19:41:53.916Z,5.34
2017-05-14T19:44:21.560Z,3.40
2017-05-14T19:46:49.114Z,3.92
2017-05-14T19:49:16.685Z,4.56
2017-05-14T19:51:44.222Z,2.00
2017-05-14T19:54:12.053Z,5.22
2017-05-14T19:56:39.681Z,12.04
2017-05-14T19:59:07.205Z,6.18
2017-05-14T20:01:34.795Z,6.36
2017-05-14T20:04:02.376Z,3.60
2017-05-14T20:06:30.007Z,4.58
2017-05-14T20:08:57.590Z,3.98
2017-05-14T20:11:25.274Z,6.22
2017-05-14T20:13:52.811Z,5.32
2017-05-14T20:16:20.389Z,5.52
2017-05-14T20:18:48.144Z,7.42
2017-05-14T20:21:15.900Z,4.36
2017-05-14T20:23:43.455Z,4.52
2017-05-14T20:26:11.003Z,9.78
2017-05-14T20:28:38.854Z,4.96
2017-05-14T20:31:06.395Z,4.90
2017-05-14T20:33:33.919Z,4.58
2017-05-14T20:36:01.527Z,6.50
2017-05-14T20:38:29.062Z,5.60
2017-05-14T20:40:56.628Z,5.30
2017-05-14T20:43:24.184Z,5.66
2017-05-14T20:45:52.076Z,4.28
2017-05-14T20:48:19.608Z,6.72
2017-05-14T20:50:47.163Z,5.50
2017-05-14T20:53:14.736Z,4.88
2017-05-14T20:55:42.270Z,3.86
2017-05-14T20:58:09.936Z,4.20
2017-05-14T21:00:37.464Z,4.52
2017-05-14T21:03:04.989Z,9.36
2017-05-14T21:05:32.568Z,4.44
2017-05-14T21:08:00.110Z,6.00
2017-05-14T21:10:28.055Z,5.18
2017-05-14T21:12:55.591Z,5.26
2017-05-14T21:15:23.125Z,8.70
2017-05-14T21:17:50.683Z,6.26
2017-05-14T21:20:18.212Z,8.64
2017-05-14T21:22:45.900Z,9.28
2017-05-14T21:25:13.425Z,8.14
2017-05-14T21:27:40.956Z,9.32
2017-05-14T21:30:08.550Z,10.22
2017-05-14T21:32:36.121Z,11.24
2017-05-14T21:35:03.702Z,11.52
2017-05-14T21:37:31.243Z,13.38
2017-05-14T21:39:59.008Z,13.92
2017-05-14T21:42:26.543Z,13.42
2017-05-14T21:44:54.071Z,15.64
2017-05-14T21:47:21.651Z,15.68
2017-05-14T21:49:49.191Z,16.42
2017-05-14T21:52:16.940Z,18.94
2017-05-14T21:54:44.734Z,15.42
2017-05-14T21:57:12.239Z,16.80
2017-05-14T21:59:39.807Z,15.70
2017-05-14T22:02:07.397Z,18.52
2017-05-14T22:04:34.999Z,17.52
2017-05-14T22:07:02.550Z,15.00
2017-05-14T22:09:30.143Z,16.94
2017-05-14T22:11:57.671Z,16.18
2017-05-14T22:14:25.344Z,14.54
2017-05-14T22:16:52.916Z,15.70
2017-05-14T22:19:20.477Z,16.24
2017-05-14T22:21:48.093Z,17.34
2017-05-14T22:24:15.611Z,16.12
2017-05-14T22:26:43.577Z,16.20
2017-05-14T22:29:11.203Z,16.68
2017-05-14T22:31:38.748Z,15.70
2017-05-14T22:34:06.368Z,17.42
2017-05-14T22:36:33.906Z,15.42
2017-05-14T22:39:01.626Z,14.72
2017-05-14T22:41:29.159Z,15.34
2017-05-14T22:43:56.823Z,14.44
2017-05-14T22:46:24.372Z,14.50
2017-05-14T22:48:51.899Z,16.50
2017-05-14T22:51:19.472Z,16.04
2017-05-14T22:53:47.095Z,18.48
2017-05-14T22:56:14.860Z,17.48
2017-05-14T22:58:42.419Z,17.50
2017-05-14T23:01:09.964Z,17.18
2017-05-14T23:03:37.525Z,16.90
2017-05-14T23:06:05.054Z,15.72
2017-05-14T23:08:32.623Z,15.82
2017-05-14T23:11:00.161Z,16.26
2017-05-14T23:13:27.847Z,14.78
2017-05-14T23:15:55.364Z,15.50
2017-05-14T23:18:22.890Z,16.82
2017-05-14T23:20:50.460Z,14.80
2017-05-14T23:23:17.988Z,15.74
2017-05-14T23:25:45.817Z,20.16
2017-05-14T23:28:13.379Z,16.54
2017-05-14T23:30:40.911Z,15.90
2017-05-14T23:33:08.534Z,16.54
2017-05-14T23:35:36.066Z,16.52
2017-05-14T23:38:03.844Z,15.50
2017-05-14T23:40:31.382Z,15.32
2017-05-14T23:42:58.975Z,16.92
2017-05-14T23:45:26.650Z,18.08
2017-05-14T23:47:54.179Z,19.62
2017-05-14T23:50:21.774Z,16.34
2017-05-14T23:52:49.269Z,18.34
2017-05-14T23:55:17.006Z,17.18
2017-05-14T23:57:44.548Z,17.54
